createdAt,value
2022-12-03T00:01:51.572Z,-21.54
2022-12-03T00:04:20.838Z,-20.79
2022-12-03T00:06:50.034Z,-21.87
2022-12-03T00:09:19.200Z,-21.02
2022-12-03T00:11:50.042Z,-21.51
2022-12-03T00:14:19.187Z,-20.88
2022-12-03T00:16:48.355Z,-21.13
2022-12-03T00:19:17.538Z,-21.51
2022-12-03T00:21:46.760Z,-21.06
2022-12-03T00:24:16.017Z,-21.15
2022-12-03T00:26:45.196Z,-21.29
2022-12-03T00:29:15.902Z,-21.35
2022-12-03T00:31:45.956Z,-20.93
2022-12-03T00:34:15.177Z,-21.23
2022-12-03T00:36:44.399Z,-22.44
2022-12-03T00:39:13.619Z,-20.90
2022-12-03T00:41:42.882Z,-21.65
2022-12-03T00:44:12.620Z,-22.12
2022-12-03T00:46:43.389Z,-22.45
2022-12-03T00:49:12.532Z,-21.16
2022-12-03T00:51:41.892Z,-22.37
2022-12-03T00:54:11.012Z,-20.93
2022-12-03T00:56:40.173Z,-21.73
2022-12-03T00:59:09.413Z,-21.30
2022-12-03T01:01:38.667Z,-21.96
2022-12-03T01:04:09.606Z,-20.87
2022-12-03T01:06:38.856Z,-20.84
2022-12-03T01:09:08.064Z,-20.82
2022-12-03T01:11:40.170Z,-21.06
2022-12-03T01:14:10.810Z,-21.85
2022-12-03T01:16:41.043Z,-21.55
2022-12-03T01:19:16.245Z,-21.00
2022-12-03T01:21:46.062Z,-20.88
2022-12-03T01:24:15.236Z,-21.39
2022-12-03T01:26:45.961Z,-20.51
2022-12-03T01:29:15.358Z,-21.29
2022-12-03T01:32:01.613Z,-21.61
2022-12-03T01:34:32.283Z,-21.19
2022-12-03T01:37:01.506Z,-20.29
2022-12-03T01:39:30.882Z,-20.26
2022-12-03T01:42:00.590Z,-20.61
2022-12-03T01:44:31.526Z,-21.42
2022-12-03T01:47:03.835Z,-21.29
2022-12-03T01:49:41.648Z,-20.49
2022-12-03T01:52:14.169Z,-20.08
2022-12-03T01:54:46.054Z,-20.04
2022-12-03T01:57:23.202Z,-20.49
2022-12-03T01:59:53.948Z,-19.97
2022-12-03T02:02:25.684Z,-20.16
2022-12-03T02:04:57.233Z,-20.15
2022-12-03T02:07:28.663Z,-19.90
2022-12-03T02:10:00.571Z,-20.68
2022-12-03T02:12:33.693Z,-20.64
2022-12-03T02:15:03.595Z,-20.78
2022-12-03T02:17:33.926Z,-21.51
2022-12-03T02:20:07.338Z,-20.34
2022-12-03T02:22:45.328Z,-19.66
2022-12-03T02:25:22.137Z,-20.09
2022-12-03T02:27:51.892Z,-20.51
2022-12-03T02:30:24.297Z,-19.89
2022-12-03T02:33:09.310Z,-19.49
2022-12-03T02:35:39.551Z,-20.64
2022-12-03T02:38:12.990Z,-19.86
2022-12-03T02:40:45.050Z,-19.45
2022-12-03T02:43:15.270Z,-20.16
2022-12-03T02:45:46.512Z,-19.32
2022-12-03T02:48:18.134Z,-20.12
2022-12-03T02:50:50.637Z,-19.25
2022-12-03T02:53:22.221Z,-19.19
2022-12-03T02:55:55.105Z,-19.15
2022-12-03T02:58:25.498Z,-19.12
2022-12-03T03:00:55.970Z,-19.26
2022-12-03T03:03:29.804Z,-19.09
2022-12-03T03:06:00.805Z,-18.99
2022-12-03T03:08:32.877Z,-19.12
2022-12-03T03:11:04.659Z,-18.92
2022-12-03T03:13:35.866Z,-18.85
2022-12-03T03:16:05.705Z,-18.78
2022-12-03T03:18:35.495Z,-18.74
2022-12-03T03:21:04.824Z,-18.76
2022-12-03T03:23:36.416Z,-18.69
2022-12-03T03:26:09.524Z,-18.82
2022-12-03T03:28:42.185Z,-18.97
2022-12-03T03:31:14.658Z,-18.56
2022-12-03T03:33:47.558Z,-18.67
2022-12-03T03:36:17.419Z,-18.92
2022-12-03T03:38:46.820Z,-18.28
2022-12-03T03:41:18.543Z,-18.38
2022-12-03T03:43:48.950Z,-18.32
2022-12-03T03:46:20.085Z,-18.13
2022-12-03T03:48:52.012Z,-18.23
2022-12-03T03:51:21.890Z,-18.01
2022-12-03T03:53:51.962Z,-17.83
2022-12-03T03:56:24.028Z,-18.04
2022-12-03T03:58:53.276Z,-17.74
2022-12-03T04:01:22.555Z,-17.73
2022-12-03T04:03:52.943Z,-17.97
2022-12-03T04:06:22.292Z,-18.00
2022-12-03T04:08:51.516Z,-17.73
2022-12-03T04:11:39.477Z,-17.79
2022-12-03T04:14:08.733Z,-17.77
2022-12-03T04:16:43.561Z,-17.93
2022-12-03T04:19:13.750Z,-18.03
2022-12-03T04:21:59.726Z,-18.27
2022-12-03T04:24:28.937Z,-17.50
2022-12-03T04:27:20.737Z,-17.53
2022-12-03T04:29:49.940Z,-17.41
2022-12-03T04:32:37.347Z,-17.38
2022-12-03T04:35:28.405Z,-17.54
2022-12-03T04:37:57.575Z,-17.39
2022-12-03T04:40:43.883Z,-17.46
2022-12-03T04:43:14.480Z,-17.49
2022-12-03T04:45:43.646Z,-17.29
2022-12-03T04:48:12.849Z,-17.47
2022-12-03T04:50:42.138Z,-17.23
2022-12-03T04:53:13.845Z,-17.29
2022-12-03T04:55:42.972Z,-17.27
2022-12-03T04:58:14.149Z,-17.36
2022-12-03T05:00:43.250Z,-18.08
2022-12-03T05:03:12.419Z,-16.99
2022-12-03T05:05:41.633Z,-16.97
2022-12-03T05:08:10.816Z,-16.96
2022-12-03T05:10:40.061Z,-16.94
